Time;durP1;ratioP1;P1;durP2;ratioP2;P2;SDS_P1;SDS_P2;PMS_P1;PMS_P2;Temp;Humidity;BMP_temperature;BMP_pressure;BME280_temperature;BME280_humidity;BME280_pressure;Samples;Min_cycle;Max_cycle;Signal;HPM_P1;HPM_P2
2021/06/23 00:00:53;;;;;;;5.57;2.77;;;;;;;12.57;72.98;101194.83;125010;1092;64323;-79
2021/06/23 00:03:20;;;;;;;7.60;3.00;;;;;;;12.52;73.19;101191.88;124906;1093;64735;-77
2021/06/23 00:05:47;;;;;;;4.07;2.43;;;;;;;12.44;73.45;101195.41;124812;1093;64374;-78
2021/06/23 00:08:14;;;;;;;9.17;2.70;;;;;;;12.39;74.13;101203.09;125009;1093;64304;-78
2021/06/23 00:10:41;;;;;;;5.30;2.30;;;;;;;12.34;73.72;101200.93;125065;1093;64269;-79
2021/06/23 00:13:09;;;;;;;7.37;2.93;;;;;;;12.30;74.02;101201.45;124984;1093;64211;-78
2021/06/23 00:15:37;;;;;;;8.93;2.10;;;;;;;12.25;74.26;101207.30;125066;1093;64386;-79
2021/06/23 00:18:05;;;;;;;6.50;1.83;;;;;;;12.21;74.40;101201.48;124876;1093;64260;-79
2021/06/23 00:20:33;;;;;;;5.67;2.03;;;;;;;12.19;74.40;101203.49;125155;1093;64330;-79
2021/06/23 00:23:01;;;;;;;8.60;3.63;;;;;;;12.16;74.97;101198.53;125138;1093;64317;-79
2021/06/23 00:25:29;;;;;;;10.80;3.70;;;;;;;12.15;74.94;101201.36;125002;1093;64234;-78
2021/06/23 00:27:56;;;;;;;10.07;4.07;;;;;;;12.11;75.33;101200.86;124801;1092;64368;-79
2021/06/23 00:30:24;;;;;;;4.83;2.80;;;;;;;12.08;75.76;101195.91;125173;1093;64318;-78
2021/06/23 00:32:54;;;;;;;8.00;3.37;;;;;;;12.03;75.76;101192.94;125018;1093;64291;-81
2021/06/23 00:35:22;;;;;;;7.67;3.80;;;;;;;11.99;76.14;101202.27;125319;1093;64380;-78
2021/06/23 00:37:49;;;;;;;12.47;2.40;;;;;;;11.96;76.27;101203.41;125153;1092;64686;-79
2021/06/23 00:40:16;;;;;;;6.00;2.20;;;;;;;11.93;76.45;101208.27;124847;1093;65471;-78
2021/06/23 00:42:44;;;;;;;5.80;2.30;;;;;;;11.91;76.63;101203.11;125128;1093;64307;-78
2021/06/23 00:45:13;;;;;;;7.35;2.55;;;;;;;11.90;76.88;101211.25;124796;1093;64314;-77
2021/06/23 00:47:44;;;;;;;6.87;3.27;;;;;;;11.86;77.21;101224.05;125075;1093;64339;-78
2021/06/23 00:50:13;;;;;;;7.40;3.23;;;;;;;11.82;77.70;101225.38;124874;1093;64288;-78
2021/06/23 00:52:40;;;;;;;8.43;2.90;;;;;;;11.79;78.06;101228.36;125017;1093;65970;-78
2021/06/23 00:55:08;;;;;;;7.33;3.67;;;;;;;11.75;78.09;101243.84;125242;1093;64265;-78
2021/06/23 00:57:39;;;;;;;9.10;3.97;;;;;;;11.75;78.38;101251.81;127494;1093;64176;-80
2021/06/23 01:00:08;;;;;;;8.80;2.97;;;;;;;11.78;78.15;101254.12;127387;1093;63069;-79
2021/06/23 01:02:35;;;;;;;4.43;2.33;;;;;;;11.81;78.27;101251.11;126040;1092;64281;-81
2021/06/23 01:05:03;;;;;;;6.73;2.27;;;;;;;11.87;78.14;101254.11;124901;1092;64396;-78
2021/06/23 01:07:30;;;;;;;3.63;2.00;;;;;;;11.90;78.03;101254.64;125013;1093;64237;-78
2021/06/23 01:09:58;;;;;;;4.73;2.97;;;;;;;11.94;78.26;101257.77;125101;1092;64408;-78
2021/06/23 01:12:27;;;;;;;8.00;3.53;;;;;;;11.94;78.07;101263.94;124997;1092;64300;-78
2021/06/23 01:14:59;;;;;;;6.27;3.10;;;;;;;11.95;77.92;101265.58;124977;1093;64282;-78
2021/06/23 01:17:29;;;;;;;7.37;3.70;;;;;;;11.97;77.85;101273.39;124776;1093;64336;-78
2021/06/23 01:20:05;;;;;;;12.40;3.37;;;;;;;11.97;77.87;101268.89;124944;1093;64285;-80
2021/06/23 01:22:33;;;;;;;6.93;3.23;;;;;;;12.00;77.80;101260.56;125677;1093;64293;-78
2021/06/23 01:25:00;;;;;;;8.10;2.70;;;;;;;12.05;78.02;101260.08;125050;1093;64403;-78
2021/06/23 01:27:28;;;;;;;4.60;2.30;;;;;;;12.09;77.82;101268.52;125006;1093;64323;-77
2021/06/23 01:29:56;;;;;;;4.20;2.23;;;;;;;12.14;77.19;101276.84;124968;1093;64410;-79
2021/06/23 01:32:23;;;;;;;3.60;2.57;;;;;;;12.17;77.63;101258.69;125029;1092;64288;-77
2021/06/23 01:34:50;;;;;;;12.83;4.07;;;;;;;12.20;77.35;101266.34;124944;1093;64298;-78
2021/06/23 01:37:18;;;;;;;5.57;3.73;;;;;;;12.25;77.22;101271.14;124956;1092;64277;-78
2021/06/23 01:39:45;;;;;;;7.33;3.57;;;;;;;12.29;77.03;101266.31;126043;1093;64959;-77
2021/06/23 01:42:12;;;;;;;6.97;3.43;;;;;;;12.33;77.38;101262.31;124998;1092;64378;-79
2021/06/23 01:44:39;;;;;;;6.03;3.73;;;;;;;12.33;76.72;101268.45;125343;1093;64288;-77
2021/06/23 01:47:06;;;;;;;10.30;4.13;;;;;;;12.33;76.39;101259.66;125093;1092;64381;-78
2021/06/23 01:49:33;;;;;;;7.37;4.33;;;;;;;12.34;76.32;101264.78;125089;1093;64288;-78
2021/06/23 01:52:00;;;;;;;10.50;3.03;;;;;;;12.36;76.14;101268.09;124966;1092;64391;-78
2021/06/23 01:54:27;;;;;;;12.37;2.70;;;;;;;12.38;76.55;101263.44;125376;1093;64345;-80
2021/06/23 01:56:55;;;;;;;8.87;2.07;;;;;;;12.41;76.72;101256.93;125220;1093;64326;-77
2021/06/23 01:59:22;;;;;;;5.50;2.90;;;;;;;12.44;76.75;101256.60;124945;1093;64303;-78
2021/06/23 02:01:49;;;;;;;5.67;3.67;;;;;;;12.46;76.74;101256.44;124994;1093;64300;-77
2021/06/23 02:04:37;;;;;;;5.83;3.73;;;;;;;12.47;76.73;101264.22;125180;1092;64287;-78
2021/06/23 02:07:15;;;;;;;7.43;3.70;;;;;;;12.50;77.01;101268.39;124988;1093;64442;-78
2021/06/23 02:09:57;;;;;;;4.50;3.33;;;;;;;12.51;76.69;101265.54;124946;1093;64285;-80
2021/06/23 02:12:23;;;;;;;7.60;3.47;;;;;;;12.52;76.58;101263.73;125011;1093;64216;-78
2021/06/23 02:14:58;;;;;;;6.17;3.70;;;;;;;12.53;76.72;101266.20;125136;1092;64288;-77
2021/06/23 02:17:28;;;;;;;4.83;2.67;;;;;;;12.54;76.53;101259.89;125028;1092;64317;-78
2021/06/23 02:19:57;;;;;;;7.17;2.57;;;;;;;12.57;76.50;101264.84;124967;1092;64419;-78
2021/06/23 02:22:30;;;;;;;11.17;2.73;;;;;;;12.60;76.47;101268.98;125258;1093;64288;-78
2021/06/23 02:25:10;;;;;;;8.70;2.83;;;;;;;12.62;76.46;101262.52;124965;1093;64265;-78
2021/06/23 02:27:42;;;;;;;5.80;3.57;;;;;;;12.63;76.39;101256.17;125149;1093;64205;-77
2021/06/23 02:30:11;;;;;;;7.03;2.93;;;;;;;12.63;76.67;101264.16;125181;1092;64309;-80
2021/06/23 02:32:40;;;;;;;8.60;3.80;;;;;;;12.60;77.07;101269.84;124891;1093;64426;-77
2021/06/23 02:35:09;;;;;;;6.37;2.73;;;;;;;12.55;77.96;101266.85;124945;1093;64298;-77
2021/06/23 02:37:38;;;;;;;5.87;3.60;;;;;;;12.52;77.78;101266.39;125228;1093;64304;-78
2021/06/23 02:40:07;;;;;;;7.13;3.23;;;;;;;12.51;78.07;101259.39;124894;1093;64367;-78
2021/06/23 02:42:35;;;;;;;6.40;2.67;;;;;;;12.50;78.42;101266.55;125067;1092;64408;-78
2021/06/23 02:45:04;;;;;;;10.17;3.00;;;;;;;12.51;78.52;101270.03;124966;1092;64375;-78
2021/06/23 02:47:31;;;;;;;7.73;4.17;;;;;;;12.48;78.67;101281.86;124955;1093;65883;-77
2021/06/23 02:50:00;;;;;;;11.53;4.07;;;;;;;12.46;78.36;101273.23;125045;1093;64230;-78
2021/06/23 02:52:27;;;;;;;6.70;3.60;;;;;;;12.46;78.32;101273.23;125235;1093;64738;-79
2021/06/23 02:54:55;;;;;;;9.07;3.50;;;;;;;12.46;78.51;101267.91;125099;1093;64319;-78
2021/06/23 02:57:23;;;;;;;5.83;3.60;;;;;;;12.47;78.84;101266.06;125080;1093;64461;-77
2021/06/23 02:59:50;;;;;;;7.27;2.80;;;;;;;12.46;78.62;101257.26;125103;1093;64344;-77
2021/06/23 03:02:17;;;;;;;7.67;2.60;;;;;;;12.43;79.02;101254.92;125020;1092;64257;-78
2021/06/23 03:04:46;;;;;;;5.67;2.43;;;;;;;12.43;78.83;101253.13;125037;1093;64373;-78
2021/06/23 03:07:14;;;;;;;4.73;1.77;;;;;;;12.44;78.47;101259.27;124964;1092;64426;-77
2021/06/23 03:09:43;;;;;;;5.60;2.40;;;;;;;12.41;78.23;101248.95;124971;1093;64438;-77
2021/06/23 03:12:16;;;;;;;7.63;2.80;;;;;;;12.39;78.32;101248.33;125073;1092;64290;-80
2021/06/23 03:14:44;;;;;;;8.23;3.37;;;;;;;12.40;78.48;101247.30;125245;1093;64307;-78
2021/06/23 03:17:11;;;;;;;5.03;3.60;;;;;;;12.40;78.30;101248.13;125506;1093;64285;-78
2021/06/23 03:19:38;;;;;;;8.43;2.73;;;;;;;12.41;78.07;101249.80;125216;1092;64224;-78
2021/06/23 03:22:07;;;;;;;9.37;4.80;;;;;;;12.42;78.14;101250.63;125135;1093;65367;-78
2021/06/23 03:24:38;;;;;;;6.83;3.03;;;;;;;12.46;77.80;101262.58;125199;1092;64195;-79
2021/06/23 03:27:07;;;;;;;11.47;3.93;;;;;;;12.49;77.51;101272.05;125061;1093;64282;-79
2021/06/23 03:29:35;;;;;;;6.13;2.80;;;;;;;12.52;77.14;101280.52;125143;1092;64390;-79
2021/06/23 03:32:07;;;;;;;10.03;2.50;;;;;;;12.55;76.80;101274.84;126204;1093;64221;-78
2021/06/23 03:34:35;;;;;;;6.40;2.13;;;;;;;12.60;76.56;101274.31;125320;1093;64262;-79
2021/06/23 03:37:05;;;;;;;9.55;3.55;;;;;;;12.64;76.29;101281.80;124911;1092;64266;-78
2021/06/23 03:39:32;;;;;;;6.93;1.90;;;;;;;12.67;75.90;101277.95;125189;1092;64293;-78
2021/06/23 03:42:00;;;;;;;5.27;2.90;;;;;;;12.69;75.71;101299.05;124861;1092;64326;-79
2021/06/23 03:44:27;;;;;;;4.80;3.00;;;;;;;12.69;75.33;101297.24;124930;1093;65374;-79
2021/06/23 03:46:55;;;;;;;7.70;2.40;;;;;;;12.71;75.55;101299.70;124747;1092;64391;-78
2021/06/23 03:49:24;;;;;;;7.63;2.87;;;;;;;12.74;75.89;101302.04;124730;1093;64296;-80
2021/06/23 03:51:51;;;;;;;7.97;1.60;;;;;;;12.79;75.73;101304.99;125104;1093;64284;-77
2021/06/23 03:54:18;;;;;;;6.77;2.03;;;;;;;12.83;75.32;101306.30;124785;1093;64375;-78
2021/06/23 03:56:45;;;;;;;10.07;3.50;;;;;;;12.85;75.37;101307.78;124834;1093;64304;-77
2021/06/23 03:59:14;;;;;;;9.77;2.57;;;;;;;12.89;75.35;101310.11;124914;1093;64433;-79
2021/06/23 04:01:41;;;;;;;9.40;2.50;;;;;;;12.94;75.49;101313.92;125014;1093;64258;-77
2021/06/23 04:04:08;;;;;;;4.95;2.40;;;;;;;13.00;75.19;101326.51;124908;1092;64281;-77
2021/06/23 04:06:35;;;;;;;4.97;2.53;;;;;;;13.03;74.72;101322.69;124918;1093;64741;-77
2021/06/23 04:09:02;;;;;;;5.53;2.37;;;;;;;13.05;74.47;101320.68;124904;1093;64288;-78
2021/06/23 04:11:30;;;;;;;5.30;2.30;;;;;;;13.03;74.39;101318.19;124934;1093;64431;-79
2021/06/23 04:13:57;;;;;;;4.53;1.93;;;;;;;13.03;74.34;101322.69;124914;1093;64304;-80
2021/06/23 04:16:24;;;;;;;6.10;2.50;;;;;;;13.06;74.09;101330.31;124844;1093;64384;-76
2021/06/23 04:18:51;;;;;;;5.60;2.00;;;;;;;13.14;74.10;101330.27;124686;1093;64243;-78
2021/06/23 04:21:18;;;;;;;6.53;1.77;;;;;;;13.21;74.06;101330.39;124774;1092;64255;-77
2021/06/23 04:23:45;;;;;;;8.93;2.40;;;;;;;13.27;73.79;101335.02;125230;1093;64310;-77
2021/06/23 04:26:12;;;;;;;7.20;2.67;;;;;;;13.35;73.92;101334.99;124677;1093;64371;-79
2021/06/23 04:28:39;;;;;;;8.05;3.00;;;;;;;13.44;73.72;101335.77;124930;1092;64303;-77
2021/06/23 04:31:07;;;;;;;9.60;2.53;;;;;;;13.48;73.40;101339.73;124946;1092;64320;-77
2021/06/23 04:33:34;;;;;;;5.77;2.03;;;;;;;13.55;73.52;101339.84;124656;1093;64301;-77
2021/06/23 04:36:01;;;;;;;5.23;2.80;;;;;;;13.61;73.35;101331.13;124769;1093;64443;-77
2021/06/23 04:38:28;;;;;;;3.27;2.23;;;;;;;13.65;73.19;101321.77;124878;1092;64282;-77
2021/06/23 04:40:55;;;;;;;7.10;2.57;;;;;;;13.66;73.04;101323.41;124889;1093;65368;-80
2021/06/23 04:43:22;;;;;;;8.93;2.60;;;;;;;13.71;72.84;101321.05;124894;1093;64326;-78
2021/06/23 04:45:49;;;;;;;6.87;1.50;;;;;;;13.74;71.94;101326.02;124967;1092;64935;-77
2021/06/23 04:48:16;;;;;;;14.20;2.03;;;;;;;13.76;71.70;101337.33;124891;1093;64298;-77
2021/06/23 04:50:43;;;;;;;8.57;2.37;;;;;;;13.79;71.46;101333.47;124905;1093;64625;-77
2021/06/23 04:53:10;;;;;;;7.83;3.03;;;;;;;13.79;71.30;101328.98;124833;1093;64798;-79
2021/06/23 04:55:38;;;;;;;5.30;2.10;;;;;;;13.82;71.31;101333.95;124889;1093;64290;-77
2021/06/23 04:58:04;;;;;;;6.80;2.37;;;;;;;13.81;70.76;101337.63;125031;1091;64274;-77
2021/06/23 05:00:32;;;;;;;6.60;2.13;;;;;;;13.82;70.63;101338.45;124745;1093;64314;-78
2021/06/23 05:03:04;;;;;;;4.40;1.83;;;;;;;13.80;69.90;101340.47;124989;1093;64140;-78
2021/06/23 05:05:31;;;;;;;9.27;2.33;;;;;;;13.78;69.58;101345.98;124927;1093;64314;-80
2021/06/23 05:07:58;;;;;;;3.35;1.80;;;;;;;13.76;70.22;101340.00;124881;1093;64371;-78
2021/06/23 05:10:25;;;;;;;6.10;1.70;;;;;;;13.74;69.64;101344.67;125075;1093;64289;-78
2021/06/23 05:12:53;;;;;;;3.80;1.47;;;;;;;13.73;69.73;101343.03;124918;1093;64349;-78
2021/06/23 05:15:20;;;;;;;7.77;3.00;;;;;;;13.73;69.63;101334.19;124938;1093;64354;-77
2021/06/23 05:17:47;;;;;;;4.83;1.87;;;;;;;13.77;69.34;101335.48;124765;1093;64397;-78
2021/06/23 05:20:15;;;;;;;3.67;1.47;;;;;;;13.82;69.77;101338.45;124698;1093;64304;-78
2021/06/23 05:22:43;;;;;;;5.57;1.33;;;;;;;13.85;69.32;101333.57;124865;1091;64215;-78
2021/06/23 05:25:10;;;;;;;2.30;1.53;;;;;;;13.88;69.73;101332.41;124740;1093;65378;-82
2021/06/23 05:27:38;;;;;;;7.23;2.03;;;;;;;13.92;69.42;101338.18;124924;1092;64215;-75
2021/06/23 05:30:06;;;;;;;5.03;1.87;;;;;;;13.93;69.24;101339.86;124921;1093;64285;-75
2021/06/23 05:32:33;;;;;;;4.27;2.20;;;;;;;13.94;69.89;101333.50;124975;1093;64396;-76
2021/06/23 05:35:00;;;;;;;5.13;2.10;;;;;;;13.98;69.82;101338.31;124856;1092;64378;-78
2021/06/23 05:37:27;;;;;;;4.73;1.73;;;;;;;14.02;71.05;101328.09;124839;1093;64979;-77
2021/06/23 05:39:54;;;;;;;7.57;1.87;;;;;;;14.16;71.70;101329.95;124831;1093;64966;-75
2021/06/23 05:42:21;;;;;;;4.50;1.70;;;;;;;14.37;70.48;101339.90;125020;1093;64379;-78
2021/06/23 05:44:49;;;;;;;4.50;1.73;;;;;;;14.52;70.09;101341.75;124681;1093;64275;-75
2021/06/23 05:47:16;;;;;;;5.03;1.97;;;;;;;14.67;68.52;101345.25;124877;1092;64303;-75
2021/06/23 05:49:43;;;;;;;6.40;1.87;;;;;;;14.61;68.17;101344.14;125186;1093;64313;-75
2021/06/23 05:52:10;;;;;;;7.80;2.30;;;;;;;14.60;68.59;101337.16;124949;1092;64962;-75
2021/06/23 05:54:37;;;;;;;4.83;1.90;;;;;;;14.66;68.20;101338.24;125024;1093;64237;-78
2021/06/23 05:57:05;;;;;;;5.67;1.63;;;;;;;14.68;69.11;101339.73;124887;1093;64372;-76
2021/06/23 05:59:32;;;;;;;6.03;1.80;;;;;;;14.85;68.93;101335.02;124883;1093;64317;-75
2021/06/23 06:01:59;;;;;;;7.67;1.90;;;;;;;14.97;67.18;101343.35;124846;1093;64415;-74
2021/06/23 06:04:26;;;;;;;5.77;1.20;;;;;;;14.97;67.05;101331.84;124840;1093;64290;-75
2021/06/23 06:06:53;;;;;;;6.10;1.70;;;;;;;14.97;67.12;101329.99;124845;1093;64285;-76
2021/06/23 06:09:20;;;;;;;3.63;1.20;;;;;;;15.08;67.51;101340.18;124864;1093;64287;-77
2021/06/23 06:11:47;;;;;;;8.10;1.40;;;;;;;15.23;67.07;101337.46;124928;1093;64304;-77
2021/06/23 06:14:14;;;;;;;5.07;1.40;;;;;;;15.43;67.19;101336.86;124794;1093;64317;-75
2021/06/23 06:16:41;;;;;;;7.97;1.70;;;;;;;15.63;67.39;101345.05;124760;1093;64301;-75
2021/06/23 06:19:09;;;;;;;4.75;1.75;;;;;;;15.72;64.73;101354.61;124845;1092;65516;-75
2021/06/23 06:21:36;;;;;;;10.30;1.80;;;;;;;15.67;64.51;101354.34;124865;1092;64304;-76
2021/06/23 06:24:03;;;;;;;5.60;1.90;;;;;;;15.60;63.62;101356.14;125075;1093;64282;-78
2021/06/23 06:26:31;;;;;;;6.07;1.77;;;;;;;15.57;64.48;101360.00;124713;1092;64432;-77
2021/06/23 06:28:58;;;;;;;6.30;1.67;;;;;;;15.55;63.87;101355.88;124683;1093;65528;-75
2021/06/23 06:31:26;;;;;;;7.20;2.73;;;;;;;15.57;63.78;101364.53;124885;1093;64291;-76
2021/06/23 06:33:53;;;;;;;18.00;9.40;;;;;;;15.56;63.26;101362.89;124865;1093;65380;-77
2021/06/23 06:36:20;;;;;;;4.65;2.10;;;;;;;15.63;63.19;101361.09;124872;1092;64211;-77
2021/06/23 06:38:47;;;;;;;4.90;1.40;;;;;;;15.67;63.25;101365.86;124826;1093;64242;-76
2021/06/23 06:41:14;;;;;;;9.40;1.87;;;;;;;15.80;63.41;101365.18;124962;1093;64284;-75
2021/06/23 06:43:41;;;;;;;6.80;1.57;;;;;;;15.87;62.65;101374.11;125054;1093;64380;-77
2021/06/23 06:46:08;;;;;;;8.43;2.20;;;;;;;15.96;62.46;101374.80;125143;1093;64330;-77
2021/06/23 06:48:37;;;;;;;4.07;0.97;;;;;;;16.12;61.94;101376.34;124811;1093;64377;-75
2021/06/23 06:51:04;;;;;;;5.30;1.40;;;;;;;16.30;62.04;101376.69;124726;1093;64396;-76
2021/06/23 06:53:31;;;;;;;8.13;1.90;;;;;;;16.54;61.07;101373.73;124861;1093;64211;-77
2021/06/23 06:55:59;;;;;;;6.60;2.17;;;;;;;16.74;60.57;101371.96;124752;1093;64351;-77
2021/06/23 06:58:26;;;;;;;5.87;1.53;;;;;;;16.89;59.96;101379.89;124759;1093;64348;-77
2021/06/23 07:00:53;;;;;;;7.23;1.57;;;;;;;16.89;58.57;101382.57;124828;1092;64400;-77
2021/06/23 07:03:20;;;;;;;7.57;1.40;;;;;;;16.92;58.75;101390.23;124695;1092;64606;-76
2021/06/23 07:05:47;;;;;;;5.80;1.10;;;;;;;16.98;58.55;101384.07;124985;1092;64400;-77
2021/06/23 07:08:14;;;;;;;5.00;1.30;;;;;;;16.98;58.68;101392.11;125098;1093;64259;-77
2021/06/23 07:10:42;;;;;;;7.03;1.20;;;;;;;16.90;56.65;101397.64;124692;1093;64382;-76
2021/06/23 07:13:09;;;;;;;6.73;1.73;;;;;;;16.81;57.45;101398.81;124961;1093;64326;-77
2021/06/23 07:15:36;;;;;;;3.05;1.20;;;;;;;16.80;58.55;101391.78;124775;1093;64323;-78
2021/06/23 07:18:03;;;;;;;4.57;1.40;;;;;;;16.79;57.71;101395.47;124937;1092;64288;-76
2021/06/23 07:20:31;;;;;;;5.27;1.77;;;;;;;16.77;57.22;101386.84;124664;1092;64330;-75
2021/06/23 07:22:58;;;;;;;3.93;1.50;;;;;;;16.78;57.62;101383.12;124658;1092;65223;-76
2021/06/23 07:25:25;;;;;;;5.23;1.67;;;;;;;16.77;57.76;101387.66;124921;1093;64230;-76
2021/06/23 07:27:53;;;;;;;2.63;1.30;;;;;;;16.70;57.95;101384.10;124662;1093;64486;-78
2021/06/23 07:30:21;;;;;;;7.03;1.57;;;;;;;16.74;58.44;101377.32;124899;1093;64826;-76
2021/06/23 07:32:52;;;;;;;4.10;1.33;;;;;;;16.82;58.21;101379.05;124963;1093;64298;-76
2021/06/23 07:38:13;;;;;;;7.67;1.73;;;;;;;16.80;57.54;101391.78;124754;1093;64463;-76
2021/06/23 07:40:51;;;;;;;4.03;1.30;;;;;;;16.75;57.56;101392.39;124739;1093;64365;-76
2021/06/23 07:43:19;;;;;;;10.80;2.27;;;;;;;16.62;58.16;101395.83;125049;1093;64288;-75
2021/06/23 07:45:50;;;;;;;10.10;2.35;;;;;;;16.64;58.23;101396.45;124668;1093;64304;-76
2021/06/23 07:48:30;;;;;;;2.20;1.00;;;;;;;16.79;57.86;101400.83;124882;1093;64290;-76
2021/06/23 07:51:12;;;;;;;5.23;1.70;;;;;;;16.82;57.33;101395.13;124812;1093;64300;-76
2021/06/23 07:56:12;;;;;;;17.55;6.70;;;;;;;17.12;58.05;101369.66;124777;1092;64314;-76
2021/06/23 08:02:01;;;;;;;8.70;1.80;;;;;;;17.28;57.75;101371.16;124900;1093;64321;-77
2021/06/23 08:12:54;;;;;;;5.90;1.90;;;;;;;17.62;54.96;101398.06;124969;1093;64283;-78
2021/06/23 08:14:54;;;;;;;5.87;1.37;;;;;;;17.51;54.75;101388.73;124941;1093;64293;-78
2021/06/23 08:17:21;;;;;;;4.80;1.30;;;;;;;17.54;55.49;101388.34;124864;1093;64233;-77
2021/06/23 08:19:48;;;;;;;10.73;1.50;;;;;;;17.61;55.67;101383.80;124905;1093;64320;-77
2021/06/23 08:22:15;;;;;;;4.30;1.30;;;;;;;17.75;55.31;101384.65;124706;1093;64350;-76
2021/06/23 08:24:42;;;;;;;8.20;1.20;;;;;;;17.85;55.23;101390.47;124814;1093;64268;-76
2021/06/23 08:27:09;;;;;;;5.47;1.20;;;;;;;17.91;55.14;101404.91;124769;1092;64569;-76
2021/06/23 08:29:36;;;;;;;8.30;1.93;;;;;;;17.86;54.54;101393.97;124978;1093;64281;-76
2021/06/23 08:32:04;;;;;;;7.13;1.50;;;;;;;17.79;53.87;101388.58;124954;1092;64508;-75
2021/06/23 08:34:32;;;;;;;4.60;1.10;;;;;;;17.75;54.41;101390.02;125065;1093;64259;-76
2021/06/23 08:36:59;;;;;;;5.57;1.47;;;;;;;17.84;55.27;101383.44;124835;1093;64322;-75
2021/06/23 08:39:26;;;;;;;9.47;1.67;;;;;;;17.99;54.45;101380.54;125113;1093;64211;-74
2021/06/23 08:41:53;;;;;;;7.35;1.60;;;;;;;18.16;55.43;101396.23;124989;1092;64313;-75
2021/06/23 08:44:22;;;;;;;5.60;1.30;;;;;;;18.31;54.47;101389.59;124894;1093;64365;-76
2021/06/23 08:46:50;;;;;;;6.73;1.30;;;;;;;18.44;54.03;101394.11;124934;1093;64208;-74
2021/06/23 08:49:18;;;;;;;6.97;1.53;;;;;;;18.56;54.17;101394.30;124867;1093;64304;-74
2021/06/23 08:51:46;;;;;;;3.20;1.20;;;;;;;18.71;53.58;101386.81;124950;1092;64310;-73
2021/06/23 08:54:13;;;;;;;6.97;1.67;;;;;;;18.84;53.67;101382.46;124996;1093;64259;-73
2021/06/23 08:56:40;;;;;;;3.93;1.43;;;;;;;19.01;53.37;101389.00;124945;1093;64441;-73
2021/06/23 08:59:07;;;;;;;9.17;1.70;;;;;;;19.17;52.48;101392.22;124966;1093;64355;-73
2021/06/23 09:01:35;;;;;;;3.47;1.50;;;;;;;19.30;51.68;101392.99;124905;1093;64334;-73
2021/06/23 09:04:14;;;;;;;5.30;1.70;;;;;;;19.46;51.51;101391.64;124743;1093;64246;-73
2021/06/23 09:06:58;;;;;;;7.00;2.00;;;;;;;19.53;51.06;101384.37;124900;1093;64231;-72
2021/06/23 09:09:32;;;;;;;8.00;1.73;;;;;;;19.61;50.67;101385.95;124851;1093;64284;-73
2021/06/23 09:12:04;;;;;;;;;;;;;;;19.77;51.85;101387.33;124935;1092;64323;-72
2021/06/23 09:14:34;;;;;;;5.97;1.27;;;;;;;19.93;50.53;101386.79;124886;1093;64243;-73
2021/06/23 09:17:17;;;;;;;6.80;2.17;;;;;;;20.13;50.73;101383.91;125070;1093;64288;-73
2021/06/23 09:20:00;;;;;;;4.47;1.20;;;;;;;20.33;50.47;101390.97;124901;1092;64307;-73
2021/06/23 09:22:34;;;;;;;7.40;1.63;;;;;;;20.44;48.66;101386.70;124993;1093;65597;-73
2021/06/23 09:25:13;;;;;;;3.80;1.50;;;;;;;20.51;48.25;101390.17;124932;1093;64556;-73
2021/06/23 09:27:56;;;;;;;8.20;2.20;;;;;;;20.56;48.11;101393.02;125080;1093;64300;-74
2021/06/23 09:30:32;;;;;;;6.17;1.77;;;;;;;20.61;48.69;101397.75;125122;1093;64330;-72
2021/06/23 09:33:18;;;;;;;6.77;1.90;;;;;;;20.62;49.12;101381.36;125200;1093;64250;-73
2021/06/23 09:35:59;;;;;;;6.03;1.70;;;;;;;20.74;49.36;101393.05;125134;1091;64764;-73
2021/06/23 09:38:49;;;;;;;8.27;1.90;;;;;;;20.66;48.36;101390.65;124983;1093;64285;-72
2021/06/23 09:41:23;;;;;;;7.37;2.27;;;;;;;20.57;49.40;101386.55;125243;1093;64323;-73
2021/06/23 09:44:05;;;;;;;5.43;1.90;;;;;;;20.57;48.89;101389.25;125203;1093;64315;-72
2021/06/23 09:46:43;;;;;;;4.70;1.50;;;;;;;20.57;48.96;101391.95;125055;1093;64281;-73
2021/06/23 09:49:17;;;;;;;5.20;1.90;;;;;;;20.71;49.55;101387.27;124726;1092;65583;-72
2021/06/23 09:51:48;;;;;;;6.05;2.20;;;;;;;20.77;49.27;101387.19;124973;1093;64846;-73
2021/06/23 09:54:26;;;;;;;11.60;2.97;;;;;;;20.83;49.15;101390.05;124864;1092;64300;-73
2021/06/23 09:57:02;;;;;;;6.67;2.33;;;;;;;20.93;49.69;101384.92;124821;1093;64323;-72
2021/06/23 09:59:38;;;;;;;3.90;1.90;;;;;;;21.14;49.77;101384.42;124963;1092;64281;-73
2021/06/23 10:02:26;;;;;;;7.10;2.00;;;;;;;21.31;49.30;101386.49;124922;1093;64211;-75
2021/06/23 10:04:58;;;;;;;5.77;1.83;;;;;;;21.47;48.18;101383.17;124819;1093;64301;-74
2021/06/23 10:07:39;;;;;;;7.50;2.30;;;;;;;21.57;48.83;101385.33;124580;1093;64379;-75
2021/06/23 10:10:09;;;;;;;9.40;2.10;;;;;;;21.53;48.18;101379.56;124640;1093;64770;-73
2021/06/23 10:12:36;;;;;;;11.77;3.30;;;;;;;21.58;47.87;101376.97;124847;1093;65372;-73
2021/06/23 10:15:05;;;;;;;9.60;2.20;;;;;;;21.77;47.38;101380.41;124930;1093;64352;-73
2021/06/23 10:17:33;;;;;;;8.43;2.70;;;;;;;22.02;48.18;101373.17;125149;1092;64249;-74
2021/06/23 10:20:03;;;;;;;9.10;2.33;;;;;;;22.09;47.24;101377.38;124862;1093;64275;-73
2021/06/23 10:22:32;;;;;;;6.17;2.03;;;;;;;22.30;47.22;101370.59;125000;1093;64281;-75
2021/06/23 10:25:04;;;;;;;7.80;2.30;;;;;;;22.58;46.81;101379.84;125001;1093;64307;-74
2021/06/23 10:27:34;;;;;;;7.87;1.97;;;;;;;22.88;46.76;101376.11;124799;1093;64458;-73
2021/06/23 10:30:02;;;;;;;5.17;1.87;;;;;;;23.04;44.82;101369.16;124993;1093;64285;-73
2021/06/23 10:32:30;;;;;;;5.43;1.77;;;;;;;23.22;45.65;101371.64;124963;1093;64247;-73
2021/06/23 10:34:57;;;;;;;5.80;2.10;;;;;;;23.40;45.09;101371.44;124874;1093;64899;-74
2021/06/23 10:37:25;;;;;;;5.50;2.23;;;;;;;23.56;44.75;101363.56;124959;1093;64307;-74
2021/06/23 10:39:55;;;;;;;7.83;2.00;;;;;;;23.68;43.17;101368.92;124911;1093;64411;-76
2021/06/23 10:42:24;;;;;;;9.70;2.37;;;;;;;23.76;43.90;101368.55;124762;1092;64300;-74
2021/06/23 10:44:56;;;;;;;6.77;1.70;;;;;;;23.65;43.59;101366.69;124918;1092;64304;-73
2021/06/23 10:47:40;;;;;;;7.50;2.37;;;;;;;23.50;42.87;101362.65;124928;1093;64771;-74
2021/06/23 10:50:32;;;;;;;9.08;3.65;;;;;;;23.43;43.95;101370.13;124689;1093;64291;-75
2021/06/23 10:53:02;;;;;;;7.90;2.90;;;;;;;23.37;43.18;101377.33;124990;1093;64521;-74
2021/06/23 10:55:30;;;;;;;7.87;2.50;;;;;;;23.36;43.47;101374.88;125205;1092;64303;-74
2021/06/23 10:58:08;;;;;;;10.20;2.63;;;;;;;23.50;43.67;101376.19;124879;1093;64402;-74
2021/06/23 11:00:36;;;;;;;9.40;2.40;;;;;;;23.75;44.06;101369.56;124861;1093;64307;-74
2021/06/23 11:03:13;;;;;;;10.03;2.17;;;;;;;23.99;44.05;101371.08;124695;1093;64371;-72
2021/06/23 11:05:50;;;;;;;4.30;1.70;;;;;;;24.15;42.31;101377.52;125011;1092;64320;-73
2021/06/23 11:08:29;;;;;;;6.83;2.20;;;;;;;24.33;43.10;101383.73;125006;1093;65502;-73
2021/06/23 11:11:00;;;;;;;8.47;2.77;;;;;;;24.60;42.53;101381.95;124843;1092;65076;-72
2021/06/23 11:13:30;;;;;;;8.65;2.75;;;;;;;24.54;40.99;101382.95;124891;1093;64288;-74
2021/06/23 11:15:59;;;;;;;5.10;2.03;;;;;;;24.40;41.23;101390.63;125002;1093;64681;-72
2021/06/23 11:18:38;;;;;;;6.10;2.13;;;;;;;24.40;40.99;101382.48;124964;1093;64298;-74
2021/06/23 11:21:18;;;;;;;9.63;2.73;;;;;;;24.27;41.39;101390.98;124898;1093;64981;-73
2021/06/23 11:23:46;;;;;;;7.07;2.83;;;;;;;24.22;42.23;101382.77;124923;1093;64326;-72
2021/06/23 11:26:20;;;;;;;6.93;2.23;;;;;;;24.27;42.15;101396.41;124883;1093;64280;-73
2021/06/23 11:29:07;;;;;;;;;;;;;;;24.36;41.92;101388.67;124819;1093;64960;-74
2021/06/23 11:32:07;;;;;;;9.50;3.00;;;;;;;24.16;41.17;101391.89;125020;1093;64378;-76
2021/06/23 11:34:44;;;;;;;5.57;2.27;;;;;;;24.07;41.72;101386.08;125305;1092;64338;-74
2021/06/23 11:37:25;;;;;;;6.67;2.30;;;;;;;24.14;42.69;101383.19;124935;1093;64303;-74
2021/06/23 11:40:11;;;;;;;7.40;2.00;;;;;;;24.26;41.60;101386.63;125069;1093;64304;-76
2021/06/23 11:42:39;;;;;;;9.27;2.93;;;;;;;24.27;41.33;101385.56;125136;1093;64307;-74
2021/06/23 11:45:10;;;;;;;6.10;2.83;;;;;;;24.37;41.75;101385.68;125253;1093;64325;-75